Time;durP1;ratioP1;P1;durP2;ratioP2;P2;SDS_P1;SDS_P2;PMS_P1;PMS_P2;Temp;Humidity;BMP_temperature;BMP_pressure;BME280_temperature;BME280_humidity;BME280_pressure;Samples;Min_cycle;Max_cycle;Signal;HPM_P1;HPM_P2
2022/04/03 00:01:58;;;;;;;;;;;;;;;0.56;100.00;97512.55;1626729;87;22059;-87
2022/04/03 00:04:24;;;;;;;;;;;;;;;0.48;100.00;97514.64;1625668;86;26005;-87
2022/04/03 00:06:50;;;;;;;;;;;;;;;0.44;100.00;97508.77;1625534;87;24632;-85
2022/04/03 00:09:16;;;;;;;;;;;;;;;0.35;100.00;97510.03;1625580;87;20446;-85
2022/04/03 00:11:42;;;;;;;;;;;;;;;0.36;100.00;97506.56;1663101;85;24801;-85
2022/04/03 00:14:09;;;;;;;;;;;;;;;0.40;100.00;97510.66;1645871;86;22118;-86
2022/04/03 00:16:36;;;;;;;;;;;;;;;0.42;100.00;97511.89;1628242;87;26082;-86
2022/04/03 00:19:03;;;;;;;;;;;;;;;0.49;100.00;97519.73;1630036;87;24547;-86
2022/04/03 00:21:29;;;;;;;;;;;;;;;0.52;100.00;97523.44;1662439;85;20316;-86
2022/04/03 00:23:55;;;;;;;;;;;;;;;0.61;100.00;97524.76;1655340;85;20335;-86
2022/04/03 00:26:21;;;;;;;;;;;;;;;0.67;100.00;97529.64;1657810;85;21895;-85
2022/04/03 00:28:48;;;;;;;;;;;;;;;0.69;100.00;97529.13;1663499;85;25957;-85
2022/04/03 00:31:14;;;;;;;;;;;;;;;0.70;100.00;97530.80;1657750;85;24415;-85
2022/04/03 00:33:40;;;;;;;;;;;;;;;0.60;100.00;97534.22;1657785;85;20157;-85
2022/04/03 00:36:06;;;;;;;;;;;;;;;0.46;100.00;97530.59;1662479;85;24789;-85
2022/04/03 00:38:32;;;;;;;;;;;;;;;0.40;100.00;97529.96;1663673;85;20820;-84
2022/04/03 00:40:59;;;;;;;;;;;;;;;0.32;100.00;97533.34;1659349;85;26107;-84
2022/04/03 00:43:25;;;;;;;;;;;;;;;0.28;100.00;97530.48;1660301;85;24673;-83
2022/04/03 00:45:52;;;;;;;;;;;;;;;0.25;100.00;97528.06;1660222;85;20857;-82
2022/04/03 00:48:19;;;;;;;;;;;;;;;0.19;100.00;97533.47;1659284;85;24837;-83
2022/04/03 00:50:45;;;;;;;;;;;;;;;0.23;100.00;97529.86;1656255;85;21958;-83
2022/04/03 00:53:12;;;;;;;;;;;;;;;0.36;100.00;97531.01;1658510;85;25951;-85
2022/04/03 00:55:57;;;;;;;;;;;;;;;0.46;100.00;97531.87;1666534;85;24527;-85
2022/04/03 00:58:23;;;;;;;;;;;;;;;0.51;100.00;97535.92;1679082;84;20214;-84
2022/04/03 01:00:50;;;;;;;;;;;;;;;0.58;100.00;97539.91;1631705;86;24749;-85
2022/04/03 01:03:16;;;;;;;;;;;;;;;0.59;100.00;97545.45;1633931;86;21952;-85
2022/04/03 01:05:42;;;;;;;;;;;;;;;0.59;100.00;97544.16;1621484;87;26001;-85
2022/04/03 01:08:09;;;;;;;;;;;;;;;0.59;100.00;97545.45;1616011;87;24562;-85
2022/04/03 01:10:35;;;;;;;;;;;;;;;0.67;100.00;97544.63;1622161;87;20229;-85
2022/04/03 01:13:01;;;;;;;;;;;;;;;0.66;100.00;97544.70;1636539;86;24728;-84
2022/04/03 01:15:27;;;;;;;;;;;;;;;0.66;100.00;97549.84;1647289;86;22070;-84
2022/04/03 01:17:53;;;;;;;;;;;;;;;0.67;100.00;97548.95;1678274;84;25969;-85
2022/04/03 01:20:19;;;;;;;;;;;;;;;0.64;100.00;97545.23;1677838;84;24395;-87
2022/04/03 01:22:45;;;;;;;;;;;;;;;0.69;100.00;97553.59;1681743;84;20170;-86
2022/04/03 01:25:14;;;;;;;;;;;;;;;0.68;100.00;97562.20;1627947;87;24885;-84
2022/04/03 01:27:46;;;;;;;;;;;;;;;0.68;100.00;97560.92;1623314;87;24831;-86
2022/04/03 01:30:16;;;;;;;;;;;;;;;0.68;100.00;97564.78;1629519;87;26019;-85
2022/04/03 01:32:40;;;;;;;;;;;;;;;0.65;100.00;97562.36;1638194;87;25292;-85
2022/04/03 01:35:08;;;;;;;;;;;;;;;0.66;100.00;97568.70;1632024;87;20228;-86
2022/04/03 01:37:34;;;;;;;;;;;;;;;0.65;100.00;97566.22;1626099;87;24830;-86
2022/04/03 01:40:00;;;;;;;;;;;;;;;0.57;100.00;97567.83;1627408;85;21950;-85
2022/04/03 01:42:26;;;;;;;;;;;;;;;0.49;100.00;97570.37;1628102;87;27601;-85
2022/04/03 01:44:55;;;;;;;;;;;;;;;0.41;100.00;97566.83;1649070;86;24496;-86
2022/04/03 01:47:21;;;;;;;;;;;;;;;0.36;100.00;97570.05;1644587;86;20282;-86
2022/04/03 01:49:48;;;;;;;;;;;;;;;0.29;100.00;97572.49;1640503;86;24856;-86
2022/04/03 01:52:14;;;;;;;;;;;;;;;0.21;100.00;97572.84;1633430;87;22087;-85
2022/04/03 01:54:40;;;;;;;;;;;;;;;0.18;100.00;97578.09;1676597;85;26030;-86
2022/04/03 01:57:06;;;;;;;;;;;;;;;0.13;100.00;97577.91;1683134;83;25237;-86
2022/04/03 01:59:36;;;;;;;;;;;;;;;0.06;100.00;97578.61;1686008;84;20447;-87
2022/04/03 02:02:02;;;;;;;;;;;;;;;-0.04;100.00;97582.46;1685932;84;24764;-86
2022/04/03 02:04:28;;;;;;;;;;;;;;;-0.13;100.00;97587.55;1681304;84;22151;-86
2022/04/03 02:07:03;;;;;;;;;;;;;;;-0.16;100.00;97586.81;1690543;84;21189;-86
2022/04/03 02:09:30;;;;;;;;;;;;;;;-0.24;100.00;97590.16;1676094;84;24175;-86
2022/04/03 02:11:57;;;;;;;;;;;;;;;-0.35;100.00;97594.45;1682520;84;20209;-86
2022/04/03 02:14:27;;;;;;;;;;;;;;;-0.39;100.00;97596.76;1668736;85;24935;-87
2022/04/03 02:16:54;;;;;;;;;;;;;;;-0.39;100.00;97595.47;1666632;84;22120;-87
2022/04/03 02:19:20;;;;;;;;;;;;;;;-0.40;100.00;97601.50;1664223;85;25986;-87
2022/04/03 02:21:49;;;;;;;;;;;;;;;-0.39;100.00;97602.34;1669838;85;24396;-86
2022/04/03 02:24:17;;;;;;;;;;;;;;;-0.40;100.00;97603.23;1630832;86;20266;-86
2022/04/03 02:26:45;;;;;;;;;;;;;;;-0.40;100.00;97604.08;1643100;87;24813;-86
2022/04/03 02:29:11;;;;;;;;;;;;;;;-0.42;100.00;97605.86;1631017;87;22854;-84
2022/04/03 02:31:38;;;;;;;;;;;;;;;-0.47;100.00;97611.19;1642377;87;26079;-84
2022/04/03 02:34:04;;;;;;;;;;;;;;;-0.50;100.00;97604.89;1642661;86;24385;-85
2022/04/03 02:36:30;;;;;;;;;;;;;;;-0.50;100.00;97620.31;1636370;86;20497;-85
2022/04/03 02:38:57;;;;;;;;;;;;;;;-0.52;100.00;97622.54;1630732;88;24762;-84
2022/04/03 02:41:23;;;;;;;;;;;;;;;-0.50;100.00;97619.47;1624412;87;22002;-86
2022/04/03 02:43:49;;;;;;;;;;;;;;;-0.48;100.00;97624.92;1629628;88;26177;-84
2022/04/03 02:46:16;;;;;;;;;;;;;;;-0.47;100.00;97632.19;1627320;87;24365;-84
2022/04/03 02:48:42;;;;;;;;;;;;;;;-0.47;100.00;97630.91;1627498;87;20471;-86
2022/04/03 02:51:08;;;;;;;;;;;;;;;-0.47;100.00;97629.62;1622052;88;24815;-86
2022/04/03 02:53:34;;;;;;;;;;;;;;;-0.51;100.00;97631.92;1616058;88;22139;-85
2022/04/03 02:56:00;;;;;;;;;;;;;;;-0.50;100.00;97633.16;1615598;88;21058;-86
2022/04/03 02:58:26;;;;;;;;;;;;;;;-0.48;100.00;97630.51;1645307;86;20360;-86
2022/04/03 03:00:53;;;;;;;;;;;;;;;-0.51;100.00;97630.20;1637081;86;20280;-85
2022/04/03 03:03:20;;;;;;;;;;;;;;;-0.54;100.00;97632.87;1642509;86;25515;-84
2022/04/03 03:05:46;;;;;;;;;;;;;;;-0.54;100.00;97642.30;1644931;86;22100;-84
2022/04/03 03:08:12;;;;;;;;;;;;;;;-0.58;100.00;97648.47;1679363;83;25984;-84
2022/04/03 03:10:38;;;;;;;;;;;;;;;-0.58;100.00;97643.33;1678590;84;20286;-85
2022/04/03 03:13:04;;;;;;;;;;;;;;;-0.61;100.00;97641.73;1679535;83;20308;-86
2022/04/03 03:15:30;;;;;;;;;;;;;;;-0.61;100.00;97648.59;1676443;84;24779;-86
2022/04/03 03:17:56;;;;;;;;;;;;;;;-0.57;100.00;97647.13;1680933;83;21949;-84
2022/04/03 03:20:23;;;;;;;;;;;;;;;-0.57;100.00;97650.98;1678520;84;26957;-85
2022/04/03 03:22:49;;;;;;;;;;;;;;;-0.52;100.00;97655.95;1676907;83;25210;-85
2022/04/03 03:25:15;;;;;;;;;;;;;;;-0.49;100.00;97656.65;1681510;84;20532;-86
2022/04/03 03:27:42;;;;;;;;;;;;;;;-0.49;100.00;97657.94;1676659;84;24806;-86
2022/04/03 03:30:09;;;;;;;;;;;;;;;-0.48;100.00;97650.62;1679077;85;22085;-85
2022/04/03 03:32:36;;;;;;;;;;;;;;;-0.48;100.00;97657.49;1679401;84;25935;-84
2022/04/03 03:35:02;;;;;;;;;;;;;;;-0.51;100.00;97656.34;1627372;86;25180;-84
2022/04/03 03:37:28;;;;;;;;;;;;;;;-0.50;100.00;97665.73;1678179;84;20249;-85
2022/04/03 03:39:54;;;;;;;;;;;;;;;-0.49;100.00;97665.64;1681395;84;24765;-85
2022/04/03 03:42:21;;;;;;;;;;;;;;;-0.47;100.00;97667.72;1679619;85;21950;-86
2022/04/03 03:44:47;;;;;;;;;;;;;;;-0.49;100.00;97669.50;1676991;85;25967;-86
2022/04/03 03:47:13;;;;;;;;;;;;;;;-0.51;100.00;97671.75;1685618;85;24532;-86
2022/04/03 03:49:43;;;;;;;;;;;;;;;-0.54;100.00;97667.55;1675293;85;20221;-86
2022/04/03 03:52:07;;;;;;;;;;;;;;;-0.56;100.00;97669.36;1675527;85;25710;-85
2022/04/03 03:54:33;;;;;;;;;;;;;;;-0.56;100.00;97673.22;1680923;85;22226;-86
2022/04/03 03:56:59;;;;;;;;;;;;;;;-0.57;100.00;97675.84;1673872;84;25978;-85
2022/04/03 03:59:25;;;;;;;;;;;;;;;-0.61;100.00;97686.69;1681514;83;25252;-86
2022/04/03 04:01:51;;;;;;;;;;;;;;;-0.61;100.00;97683.28;1682579;85;20217;-86
2022/04/03 04:04:17;;;;;;;;;;;;;;;-0.64;100.00;97686.78;1679825;85;24723;-85
2022/04/03 04:06:43;;;;;;;;;;;;;;;-0.67;100.00;97688.64;1684646;85;22101;-85
2022/04/03 04:09:10;;;;;;;;;;;;;;;-0.69;100.00;97691.27;1681489;85;25985;-84
2022/04/03 04:11:36;;;;;;;;;;;;;;;-0.67;100.00;97697.19;1681338;85;24492;-85
2022/04/03 04:14:02;;;;;;;;;;;;;;;-0.66;100.00;97698.87;1677367;84;20322;-85
2022/04/03 04:16:28;;;;;;;;;;;;;;;-0.68;100.00;97699.36;1682772;85;24741;-84
2022/04/03 04:18:54;;;;;;;;;;;;;;;-0.67;100.00;97705.34;1678306;84;21667;-84
2022/04/03 04:21:20;;;;;;;;;;;;;;;-0.69;100.00;97702.82;1676034;84;22556;-83
2022/04/03 04:23:46;;;;;;;;;;;;;;;-0.74;100.00;97709.86;1674502;85;24596;-84
2022/04/03 04:26:14;;;;;;;;;;;;;;;-0.72;100.00;97707.24;1677079;85;20447;-86
2022/04/03 04:28:40;;;;;;;;;;;;;;;-0.74;100.00;97718.02;1678749;85;24748;-85
2022/04/03 04:31:06;;;;;;;;;;;;;;;-0.72;100.00;97719.64;1680213;84;22639;-86
2022/04/03 04:33:38;;;;;;;;;;;;;;;-0.69;100.00;97720.80;1675855;85;26052;-86
2022/04/03 04:36:06;;;;;;;;;;;;;;;-0.74;100.00;97720.14;1680600;84;24447;-85
2022/04/03 04:38:32;;;;;;;;;;;;;;;-0.76;100.00;97730.09;1682542;84;20543;-85
2022/04/03 04:40:58;;;;;;;;;;;;;;;-0.82;100.00;97732.88;1675908;85;24848;-85
2022/04/03 04:43:24;;;;;;;;;;;;;;;-0.83;100.00;97729.91;1682239;83;21997;-86
2022/04/03 04:45:50;;;;;;;;;;;;;;;-0.86;100.00;97730.84;1677357;85;26814;-86
2022/04/03 04:48:17;;;;;;;;;;;;;;;-0.89;100.00;97732.25;1681530;84;24690;-85
2022/04/03 04:50:43;;;;;;;;;;;;;;;-0.90;100.00;97735.27;1678986;85;20261;-85
2022/04/03 04:53:09;;;;;;;;;;;;;;;-0.79;100.00;97739.17;1677620;85;24704;-85
2022/04/03 04:55:35;;;;;;;;;;;;;;;-0.76;100.00;97741.66;1676316;83;22065;-85
2022/04/03 04:58:01;;;;;;;;;;;;;;;-0.77;100.00;97744.66;1663591;85;26024;-84
2022/04/03 05:00:31;;;;;;;;;;;;;;;-0.79;100.00;97758.00;1642903;85;24524;-85
2022/04/03 05:02:58;;;;;;;;;;;;;;;-0.79;100.00;97752.02;1610680;88;20393;-85
2022/04/03 05:05:24;;;;;;;;;;;;;;;-0.89;100.00;97756.64;1609814;88;20367;-86
2022/04/03 05:07:52;;;;;;;;;;;;;;;-0.89;100.00;97754.08;1619356;87;22032;-85
2022/04/03 05:10:18;;;;;;;;;;;;;;;-0.94;100.00;97744.42;1623059;87;25968;-85
2022/04/03 05:12:44;;;;;;;;;;;;;;;-0.77;100.00;97758.79;1623441;87;24462;-86
2022/04/03 05:15:11;;;;;;;;;;;;;;;-0.72;100.00;97762.03;1621601;87;20324;-86
2022/04/03 05:17:38;;;;;;;;;;;;;;;-0.76;100.00;97769.43;1621439;87;24758;-86
2022/04/03 05:20:05;;;;;;;;;;;;;;;-0.77;100.00;97770.34;1599728;88;22108;-85
2022/04/03 05:22:31;;;;;;;;;;;;;;;-0.71;100.00;97773.15;1586913;88;26046;-85
2022/04/03 05:24:57;;;;;;;;;;;;;;;-0.67;100.00;97778.56;1613349;88;20262;-84
2022/04/03 05:27:24;;;;;;;;;;;;;;;-0.69;100.00;97777.77;1610359;87;20583;-85
2022/04/03 05:29:50;;;;;;;;;;;;;;;-0.69;100.00;97782.46;1623368;87;24844;-85
2022/04/03 05:32:18;;;;;;;;;;;;;;;-0.70;100.00;97792.78;1615989;87;22085;-85
2022/04/03 05:34:47;;;;;;;;;;;;;;;-0.69;100.00;97789.33;1617259;86;26877;-85
2022/04/03 05:37:14;;;;;;;;;;;;;;;-0.65;100.00;97792.17;1622430;88;24605;-85
2022/04/03 05:39:40;;;;;;;;;;;;;;;-0.63;100.00;97798.95;1618491;88;20548;-85
2022/04/03 05:42:07;;;;;;;;;;;;;;;-0.57;100.00;97801.30;1622183;88;24690;-85
2022/04/03 05:44:33;;;;;;;;;;;;;;;-0.56;100.00;97802.14;1618088;88;22069;-84
2022/04/03 05:46:59;;;;;;;;;;;;;;;-0.59;100.00;97806.93;1613173;88;26168;-84
2022/04/03 05:49:25;;;;;;;;;;;;;;;-0.60;100.00;97811.67;1623781;88;20276;-84
2022/04/03 05:51:51;;;;;;;;;;;;;;;-0.60;100.00;97814.23;1620523;87;20333;-84
2022/04/03 05:54:17;;;;;;;;;;;;;;;-0.60;100.00;97814.23;1618161;88;24814;-84
2022/04/03 05:56:44;;;;;;;;;;;;;;;-0.56;100.00;97817.56;1635552;86;20323;-85
2022/04/03 05:59:10;;;;;;;;;;;;;;;-0.52;100.00;97818.67;1627652;87;26115;-85
2022/04/03 06:01:36;;;;;;;;;;;;;;;-0.45;100.00;97820.59;1627484;86;24488;-85
2022/04/03 06:04:02;;;;;;;;;;;;;;;-0.45;100.00;97820.14;1634399;87;20257;-85
2022/04/03 06:06:28;;;;;;;;;;;;;;;-0.44;100.00;97828.22;1631627;86;25011;-85
2022/04/03 06:08:54;;;;;;;;;;;;;;;-0.44;100.00;97828.22;1630222;87;20300;-85
2022/04/03 06:11:20;;;;;;;;;;;;;;;-0.44;100.00;97830.80;1628186;86;25952;-86
2022/04/03 06:13:46;;;;;;;;;;;;;;;-0.45;100.00;97831.71;1599174;89;24443;-86
2022/04/03 06:16:14;;;;;;;;;;;;;;;-0.42;100.00;97831.59;1598266;89;20722;-86
2022/04/03 06:18:41;;;;;;;;;;;;;;;-0.37;100.00;97838.28;1599614;88;24835;-85
2022/04/03 06:21:08;;;;;;;;;;;;;;;-0.30;100.00;97839.75;1628187;87;21960;-85
2022/04/03 06:23:34;;;;;;;;;;;;;;;-0.25;100.00;97843.00;1626617;87;25974;-85
2022/04/03 06:26:02;;;;;;;;;;;;;;;-0.28;100.00;97844.41;1615204;87;20322;-85
2022/04/03 06:28:28;;;;;;;;;;;;;;;-0.32;100.00;97846.22;1646217;86;20247;-84
2022/04/03 06:30:57;;;;;;;;;;;;;;;-0.27;100.00;97852.04;1627090;87;25393;-85
2022/04/03 06:33:24;;;;;;;;;;;;;;;-0.15;100.00;97857.19;1651580;86;22772;-86
2022/04/03 06:35:50;;;;;;;;;;;;;;;-0.12;100.00;97859.22;1626850;87;25681;-86
2022/04/03 06:38:16;;;;;;;;;;;;;;;-0.10;100.00;97858.70;1648969;86;24575;-85
2022/04/03 06:40:45;;;;;;;;;;;;;;;-0.08;100.00;97864.64;1630086;86;20584;-85
2022/04/03 06:43:11;;;;;;;;;;;;;;;-0.01;100.00;97865.26;1644319;86;25482;-85
2022/04/03 06:45:37;;;;;;;;;;;;;;;-0.04;100.00;97870.50;1626909;88;22173;-85
2022/04/03 06:48:05;;;;;;;;;;;;;;;-0.07;100.00;97871.46;1649834;86;26201;-85
2022/04/03 06:50:33;;;;;;;;;;;;;;;-0.09;100.00;97871.95;1626363;86;24393;-86
2022/04/03 06:52:59;;;;;;;;;;;;;;;-0.11;100.00;97874.20;1626618;87;20244;-85
2022/04/03 06:55:25;;;;;;;;;;;;;;;-0.15;100.00;97873.45;1634211;87;24761;-83
2022/04/03 06:57:51;;;;;;;;;;;;;;;-0.14;100.00;97877.71;1627568;86;21977;-85
2022/04/03 07:00:19;;;;;;;;;;;;;;;-0.16;100.00;97883.79;1646511;86;26028;-85
2022/04/03 07:02:45;;;;;;;;;;;;;;;-0.23;100.00;97887.05;1630329;86;25487;-84
2022/04/03 07:05:11;;;;;;;;;;;;;;;-0.28;100.00;97887.66;1626654;87;21171;-84
2022/04/03 07:07:37;;;;;;;;;;;;;;;-0.32;100.00;97887.36;1641095;86;24702;-86
2022/04/03 07:10:04;;;;;;;;;;;;;;;-0.34;100.00;97893.46;1642255;86;22026;-85
2022/04/03 07:12:30;;;;;;;;;;;;;;;-0.34;100.00;97894.75;1627561;87;26002;-85
2022/04/03 07:14:56;;;;;;;;;;;;;;;-0.37;100.00;97902.55;1628362;86;24434;-84
2022/04/03 07:17:22;;;;;;;;;;;;;;;-0.36;100.00;97910.22;1638034;87;20238;-85
2022/04/03 07:19:48;;;;;;;;;;;;;;;-0.36;100.00;97910.66;1684046;84;20294;-85
2022/04/03 07:22:14;;;;;;;;;;;;;;;-0.40;100.00;97913.79;1677847;84;20229;-85
2022/04/03 07:24:40;;;;;;;;;;;;;;;-0.34;100.00;97916.59;1643439;86;25999;-85
2022/04/03 07:27:07;;;;;;;;;;;;;;;-0.36;100.00;97917.92;1642643;86;24398;-85
2022/04/03 07:29:34;;;;;;;;;;;;;;;-0.29;100.00;97920.69;1629140;86;20243;-84
2022/04/03 07:32:00;;;;;;;;;;;;;;;-0.27;100.00;97920.64;1637707;86;24780;-84
2022/04/03 07:34:29;;;;;;;;;;;;;;;-0.21;100.00;97921.69;1626343;87;22078;-84
2022/04/03 07:36:57;;;;;;;;;;;;;;;-0.11;100.00;97924.35;1627339;86;26025;-84
2022/04/03 07:39:23;;;;;;;;;;;;;;;-0.14;100.00;97929.14;1629439;87;25550;-84
2022/04/03 07:41:50;;;;;;;;;;;;;;;-0.03;100.00;97933.91;1682247;84;20205;-84
2022/04/03 07:44:16;;;;;;;;;;;;;;;0.05;100.00;97934.48;1684937;84;24830;-84
2022/04/03 07:46:42;;;;;;;;;;;;;;;0.09;100.00;97935.20;1685534;84;20260;-84
2022/04/03 07:49:10;;;;;;;;;;;;;;;0.11;100.00;97938.09;1684996;84;20760;-84
2022/04/03 07:51:39;;;;;;;;;;;;;;;0.14;100.00;97944.88;1684344;83;24491;-84
2022/04/03 07:54:05;;;;;;;;;;;;;;;0.17;100.00;97949.45;1678351;84;20221;-84
2022/04/03 07:56:31;;;;;;;;;;;;;;;0.30;100.00;97946.00;1685606;83;20215;-84
2022/04/03 07:59:01;;;;;;;;;;;;;;;0.39;100.00;97954.66;1680887;83;22621;-85
2022/04/03 08:01:28;;;;;;;;;;;;;;;0.44;100.00;97954.03;1636062;86;26074;-84
2022/04/03 08:03:54;;;;;;;;;;;;;;;0.48;100.00;97956.06;1634076;86;24422;-83
2022/04/03 08:06:20;;;;;;;;;;;;;;;0.55;100.00;97961.36;1629140;86;20402;-83
2022/04/03 08:08:46;;;;;;;;;;;;;;;0.66;100.00;97961.34;1675489;84;20247;-84
2022/04/03 08:11:12;;;;;;;;;;;;;;;0.72;100.00;97961.56;1675536;85;21985;-83
2022/04/03 08:13:38;;;;;;;;;;;;;;;0.78;100.00;97969.91;1672057;85;26075;-83
2022/04/03 08:16:04;;;;;;;;;;;;;;;0.77;100.00;97967.38;1671739;85;24463;-84
2022/04/03 08:18:31;;;;;;;;;;;;;;;0.77;100.00;97972.53;1666868;85;20259;-83
2022/04/03 08:20:56;;;;;;;;;;;;;;;0.77;100.00;97984.11;1679431;83;24751;-83
2022/04/03 08:23:22;;;;;;;;;;;;;;;0.70;100.00;97979.67;1618042;87;20309;-83
2022/04/03 08:25:48;;;;;;;;;;;;;;;0.71;100.00;97985.66;1639753;87;21085;-84
2022/04/03 08:28:17;;;;;;;;;;;;;;;0.63;100.00;97989.80;1635000;86;20261;-84
2022/04/03 08:30:42;;;;;;;;;;;;;;;0.55;100.00;97983.23;1631627;86;20485;-84
2022/04/03 08:33:10;;;;;;;;;;;;;;;0.59;100.00;97994.68;1633983;87;25670;-84
2022/04/03 08:35:40;;;;;;;;;;;;;;;0.59;100.00;97993.84;1632790;86;21949;-84
2022/04/03 08:38:08;;;;;;;;;;;;;;;0.58;100.00;97993.00;1615606;86;26828;-84
2022/04/03 08:40:34;;;;;;;;;;;;;;;0.66;100.00;97996.55;1641469;86;24572;-84
2022/04/03 08:43:01;;;;;;;;;;;;;;;0.69;100.00;97997.30;1649573;86;20270;-84
2022/04/03 08:45:27;;;;;;;;;;;;;;;0.75;100.00;97998.36;1641746;86;24749;-87
2022/04/03 08:47:57;;;;;;;;;;;;;;;0.84;100.00;98003.16;1644274;86;21932;-85
2022/04/03 08:50:25;;;;;;;;;;;;;;;0.93;100.00;98005.81;1640670;86;26206;-84
2022/04/03 08:53:04;;;;;;;;;;;;;;;1.01;100.00;98009.39;1639780;86;24559;-84
2022/04/03 08:55:31;;;;;;;;;;;;;;;1.07;100.00;98008.72;1638234;86;20560;-84
2022/04/03 08:58:04;;;;;;;;;;;;;;;1.15;100.00;98011.82;1645185;86;24830;-84
2022/04/03 09:00:29;;;;;;;;;;;;;;;1.24;100.00;98015.34;1630311;86;22911;-85
2022/04/03 09:02:55;;;;;;;;;;;;;;;1.34;100.00;98017.11;1628840;86;25668;-85
2022/04/03 09:05:21;;;;;;;;;;;;;;;1.41;100.00;98014.68;1619815;87;25214;-85
2022/04/03 09:07:49;;;;;;;;;;;;;;;1.45;100.00;98020.09;1642291;86;20294;-85
2022/04/03 09:10:16;;;;;;;;;;;;;;;1.54;100.00;98024.03;1632749;85;25810;-84
2022/04/03 09:12:44;;;;;;;;;;;;;;;1.57;100.00;98023.48;1623097;88;22118;-85
2022/04/03 09:15:17;;;;;;;;;;;;;;;1.55;100.00;98030.88;1623101;86;26667;-84
2022/04/03 09:17:44;;;;;;;;;;;;;;;1.55;100.00;98029.14;1639747;86;24511;-84
2022/04/03 09:20:13;;;;;;;;;;;;;;;1.66;100.00;98034.70;1618583;88;20285;-85
2022/04/03 09:22:41;;;;;;;;;;;;;;;1.76;100.00;98037.73;1622456;88;24838;-85
2022/04/03 09:25:11;;;;;;;;;;;;;;;1.83;100.00;98042.20;1619826;87;22073;-83
2022/04/03 09:27:52;;;;;;;;;;;;;;;1.84;100.00;98049.88;1647137;85;26099;-83
2022/04/03 09:30:19;;;;;;;;;;;;;;;1.77;100.00;98052.31;1643857;85;24414;-84
2022/04/03 09:32:49;;;;;;;;;;;;;;;1.80;100.00;98050.89;1653440;85;20288;-84
2022/04/03 09:35:16;;;;;;;;;;;;;;;1.82;100.00;98050.83;1651059;85;25625;-84
2022/04/03 09:38:01;;;;;;;;;;;;;;;1.83;100.00;98057.23;1647790;86;22415;-85
2022/04/03 09:40:30;;;;;;;;;;;;;;;1.83;100.00;98059.81;1653896;86;26697;-84
2022/04/03 09:43:15;;;;;;;;;;;;;;;1.84;100.00;98056.33;1643442;86;25117;-85
2022/04/03 09:45:49;;;;;;;;;;;;;;;1.88;100.00;98057.03;1648736;86;20329;-86
2022/04/03 09:48:22;;;;;;;;;;;;;;;1.89;100.00;98062.59;1658004;84;24845;-84
2022/04/03 09:51:05;;;;;;;;;;;;;;;1.95;100.00;98063.19;1631278;86;22256;-85
2022/04/03 09:53:47;;;;;;;;;;;;;;;2.02;100.00;98063.74;1646667;85;25974;-86
2022/04/03 09:56:14;;;;;;;;;;;;;;;2.02;100.00;98059.42;1651339;86;24062;-86
2022/04/03 09:58:47;;;;;;;;;;;;;;;1.99;100.00;98060.86;1675754;85;20233;-86
2022/04/03 10:01:27;;;;;;;;;;;;;;;1.99;100.00;98063.44;1612614;87;24868;-86
2022/04/03 10:03:53;;;;;;;;;;;;;;;2.04;100.00;98061.50;1638891;86;22020;-87
2022/04/03 10:06:20;;;;;;;;;;;;;;;2.13;100.00;98067.20;1631001;86;26077;-87
2022/04/03 10:08:47;;;;;;;;;;;;;;;2.14;100.00;98059.36;1640384;87;24481;-87
2022/04/03 10:11:15;;;;;;;;;;;;;;;2.24;100.00;98064.97;1635442;87;20251;-86
2022/04/03 10:13:45;;;;;;;;;;;;;;;2.20;100.00;98068.14;1629275;87;24826;-87
2022/04/03 10:16:12;;;;;;;;;;;;;;;2.18;100.00;98067.84;1632479;86;22043;-87
2022/04/03 10:18:39;;;;;;;;;;;;;;;2.13;100.00;98068.48;1623513;88;25991;-87
2022/04/03 10:21:07;;;;;;;;;;;;;;;2.21;100.00;98066.41;1616972;88;24459;-87
2022/04/03 10:23:35;;;;;;;;;;;;;;;2.27;100.00;98062.28;1636087;86;20326;-87
2022/04/03 10:26:02;;;;;;;;;;;;;;;2.35;100.00;98060.19;1631334;86;26097;-87
2022/04/03 10:28:29;;;;;;;;;;;;;;;2.39;100.00;98067.77;1639527;86;21780;-86
2022/04/03 10:31:00;;;;;;;;;;;;;;;2.43;100.00;98067.17;1621494;86;25991;-86
2022/04/03 10:33:29;;;;;;;;;;;;;;;2.40;100.00;98067.31;1620280;87;24483;-86
2022/04/03 10:35:58;;;;;;;;;;;;;;;2.28;100.00;98075.58;1633380;86;20223;-86
2022/04/03 10:38:26;;;;;;;;;;;;;;;2.09;100.00;98079.37;1628508;87;24837;-86
2022/04/03 10:40:59;;;;;;;;;;;;;;;1.94;100.00;98077.43;1632290;87;22016;-89
2022/04/03 10:43:25;;;;;;;;;;;;;;;1.86;100.00;98084.18;1640490;86;25943;-87
2022/04/03 10:45:52;;;;;;;;;;;;;;;1.91;100.00;98080.95;1637218;85;26225;-86
2022/04/03 10:48:23;;;;;;;;;;;;;;;1.99;100.00;98082.79;1632747;86;20263;-86
2022/04/03 10:50:58;;;;;;;;;;;;;;;2.05;100.00;98086.41;1634439;85;24715;-86
2022/04/03 10:53:26;;;;;;;;;;;;;;;2.14;100.00;98085.63;1625004;86;22011;-86
2022/04/03 10:55:55;;;;;;;;;;;;;;;2.25;100.00;98087.31;1625420;86;26782;-86
2022/04/03 10:58:22;;;;;;;;;;;;;;;2.31;100.00;98085.31;1603186;87;24573;-87
2022/04/03 11:00:49;;;;;;;;;;;;;;;2.36;100.00;98085.11;1589523;88;20345;-87
2022/04/03 11:03:21;;;;;;;;;;;;;;;2.44;100.00;98089.06;1654913;85;24811;-87
2022/04/03 11:05:47;;;;;;;;;;;;;;;2.52;100.00;98086.97;1651349;85;22021;-86
2022/04/03 11:08:15;;;;;;;;;;;;;;;2.55;100.00;98086.02;1651130;85;26127;-86
2022/04/03 11:10:54;;;;;;;;;;;;;;;2.56;100.00;98081.24;1646976;84;24517;-86
2022/04/03 11:13:25;;;;;;;;;;;;;;;2.51;100.00;98084.45;1639415;86;20349;-85
2022/04/03 11:15:58;;;;;;;;;;;;;;;2.40;100.00;98089.27;1648337;84;24940;-86
2022/04/03 11:18:28;;;;;;;;;;;;;;;2.41;100.00;98085.30;1646939;84;20444;-85
2022/04/03 11:21:06;;;;;;;;;;;;;;;2.41;100.00;98090.91;1617487;87;26691;-86
2022/04/03 11:23:34;;;;;;;;;;;;;;;2.52;100.00;98082.26;1661018;85;24491;-86
2022/04/03 11:26:00;;;;;;;;;;;;;;;2.53;100.00;98090.40;1644645;86;20518;-86
2022/04/03 11:28:31;;;;;;;;;;;;;;;2.48;100.00;98085.89;1637879;86;24780;-86
2022/04/03 11:33:27;;;;;;;;;;;;;;;2.19;100.00;98098.73;1738151;82;20177;-86
2022/04/03 11:35:53;;;;;;;;;;;;;;;2.04;100.00;98089.89;1737506;81;24477;-86
2022/04/03 11:38:20;;;;;;;;;;;;;;;1.99;100.00;98094.85;1738004;81;20168;-86
2022/04/03 11:40:49;;;;;;;;;;;;;;;1.92;100.00;98092.12;1735013;81;24807;-85
2022/04/03 11:43:19;;;;;;;;;;;;;;;1.91;100.00;98091.28;1735659;81;22100;-86
2022/04/03 11:45:50;;;;;;;;;;;;;;;1.89;100.00;98095.68;1734966;82;25984;-85
2022/04/03 11:48:20;;;;;;;;;;;;;;;1.78;100.00;98092.69;1737013;81;24492;-86
2022/04/03 11:50:46;;;;;;;;;;;;;;;1.68;100.00;98093.97;1733948;81;20640;-85
2022/04/03 11:53:14;;;;;;;;;;;;;;;1.60;100.00;98089.55;1673988;84;24803;-86
2022/04/03 11:55:40;;;;;;;;;;;;;;;1.57;100.00;98092.27;1655016;84;22256;-85
2022/04/03 11:58:06;;;;;;;;;;;;;;;1.53;100.00;98091.52;1668912;84;26148;-85
2022/04/03 12:00:33;;;;;;;;;;;;;;;1.54;100.00;98088.05;1688599;84;24381;-86
2022/04/03 12:03:00;;;;;;;;;;;;;;;1.54;100.00;98090.63;1673322;83;20311;-86
2022/04/03 12:05:26;;;;;;;;;;;;;;;1.53;100.00;98094.09;1690164;84;24797;-86
2022/04/03 12:07:52;;;;;;;;;;;;;;;1.58;100.00;98095.23;1699218;84;21789;-86
2022/04/03 12:10:27;;;;;;;;;;;;;;;1.63;100.00;98097.18;1685029;83;20983;-86
2022/04/03 12:12:55;;;;;;;;;;;;;;;1.65;100.00;98097.94;1682065;85;24532;-86
2022/04/03 12:15:22;;;;;;;;;;;;;;;1.69;100.00;98095.66;1684704;85;20302;-86
2022/04/03 12:17:55;;;;;;;;;;;;;;;1.82;100.00;98095.98;1683010;85;25552;-87
2022/04/03 12:20:21;;;;;;;;;;;;;;;1.98;100.00;98097.03;1686473;85;21968;-87
2022/04/03 12:22:51;;;;;;;;;;;;;;;2.04;100.00;98101.50;1684576;83;21214;-87
2022/04/03 12:25:17;;;;;;;;;;;;;;;2.08;100.00;98102.20;1685322;85;24524;-87
2022/04/03 12:27:45;;;;;;;;;;;;;;;2.07;100.00;98096.68;1691552;83;20464;-87
2022/04/03 12:30:11;;;;;;;;;;;;;;;2.14;100.00;98103.24;1691708;83;24800;-86
2022/04/03 12:32:41;;;;;;;;;;;;;;;2.21;100.00;98094.35;1692287;84;21939;-86
2022/04/03 12:35:08;;;;;;;;;;;;;;;2.23;100.00;98096.88;1690055;83;26786;-87
2022/04/03 12:37:35;;;;;;;;;;;;;;;2.25;100.00;98095.05;1706440;83;24420;-83
2022/04/03 12:40:11;;;;;;;;;;;;;;;2.30;100.00;98095.25;1679611;85;20296;-83
2022/04/03 12:42:41;;;;;;;;;;;;;;;2.36;100.00;98098.86;1680544;84;24771;-86
2022/04/03 12:45:10;;;;;;;;;;;;;;;2.44;100.00;98081.31;1705712;82;22046;-87
2022/04/03 12:47:47;;;;;;;;;;;;;;;2.49;100.00;98088.41;1677228;85;25991;-85